sensor_id;sensor_type;location;lat;lon;timestamp;temperature;humidity
4058;DHT22;2044;48.692;9.020;2022-11-21T00:01:20;3.30;99.90
4058;DHT22;2044;48.692;9.020;2022-11-21T00:13:48;3.30;99.90
4058;DHT22;2044;48.692;9.020;2022-11-21T00:16:16;3.20;99.90
4058;DHT22;2044;48.692;9.020;2022-11-21T00:21:13;3.10;99.90
4058;DHT22;2044;48.692;9.020;2022-11-21T00:23:40;3.10;99.90
4058;DHT22;2044;48.692;9.020;2022-11-21T00:26:09;3.00;99.90
4058;DHT22;2044;48.692;9.020;2022-11-21T00:31:04;2.90;99.90
4058;DHT22;2044;48.692;9.020;2022-11-21T00:33:31;2.80;99.90
4058;DHT22;2044;48.692;9.020;2022-11-21T00:35:58;2.80;99.90
4058;DHT22;2044;48.692;9.020;2022-11-21T00:38:32;2.80;99.90
4058;DHT22;2044;48.692;9.020;2022-11-21T00:40:58;2.80;99.90
4058;DHT22;2044;48.692;9.020;2022-11-21T00:43:25;2.70;99.90
4058;DHT22;2044;48.692;9.020;2022-11-21T00:48:19;2.60;99.90
4058;DHT22;2044;48.692;9.020;2022-11-21T00:50:47;2.50;99.90
4058;DHT22;2044;48.692;9.020;2022-11-21T00:58:27;2.50;99.90
4058;DHT22;2044;48.692;9.020;2022-11-21T01:01:02;2.50;99.90
4058;DHT22;2044;48.692;9.020;2022-11-21T01:03:39;2.50;99.90
4058;DHT22;2044;48.692;9.020;2022-11-21T01:06:08;2.60;99.90
4058;DHT22;2044;48.692;9.020;2022-11-21T01:08:40;2.60;99.90
4058;DHT22;2044;48.692;9.020;2022-11-21T01:16:12;3.00;99.90
4058;DHT22;2044;48.692;9.020;2022-11-21T01:26:06;3.00;99.90
4058;DHT22;2044;48.692;9.020;2022-11-21T01:36:14;2.90;99.90
4058;DHT22;2044;48.692;9.020;2022-11-21T01:54:19;3.00;99.90
4058;DHT22;2044;48.692;9.020;2022-11-21T01:59:21;2.90;99.90
4058;DHT22;2044;48.692;9.020;2022-11-21T02:07:22;2.80;99.90
4058;DHT22;2044;48.692;9.020;2022-11-21T02:18:05;2.90;99.90
4058;DHT22;2044;48.692;9.020;2022-11-21T02:20:33;2.80;99.90
4058;DHT22;2044;48.692;9.020;2022-11-21T02:23:11;2.80;99.90
4058;DHT22;2044;48.692;9.020;2022-11-21T02:25:50;2.80;99.90
4058;DHT22;2044;48.692;9.020;2022-11-21T02:28:20;2.90;99.90
4058;DHT22;2044;48.692;9.020;2022-11-21T02:30:49;2.90;99.90
4058;DHT22;2044;48.692;9.020;2022-11-21T02:41:08;2.80;99.90
4058;DHT22;2044;48.692;9.020;2022-11-21T02:43:41;2.80;99.90
4058;DHT22;2044;48.692;9.020;2022-11-21T02:59:02;2.80;99.90
4058;DHT22;2044;48.692;9.020;2022-11-21T03:01:30;2.70;99.90
4058;DHT22;2044;48.692;9.020;2022-11-21T03:03:59;2.60;99.90
4058;DHT22;2044;48.692;9.020;2022-11-21T03:41:30;2.70;99.90
4058;DHT22;2044;48.692;9.020;2022-11-21T03:43:59;2.90;99.90
4058;DHT22;2044;48.692;9.020;2022-11-21T03:46:28;2.80;99.90
4058;DHT22;2044;48.692;9.020;2022-11-21T03:48:55;2.90;99.90
4058;DHT22;2044;48.692;9.020;2022-11-21T03:51:22;3.00;99.90
4058;DHT22;2044;48.692;9.020;2022-11-21T03:53:49;2.90;99.90
4058;DHT22;2044;48.692;9.020;2022-11-21T03:56:16;3.00;99.90
4058;DHT22;2044;48.692;9.020;2022-11-21T03:58:42;3.10;99.90
4058;DHT22;2044;48.692;9.020;2022-11-21T04:01:09;3.10;99.90
4058;DHT22;2044;48.692;9.020;2022-11-21T04:03:39;3.20;99.90
4058;DHT22;2044;48.692;9.020;2022-11-21T04:06:06;3.20;99.90
4058;DHT22;2044;48.692;9.020;2022-11-21T04:08:33;3.20;99.90
4058;DHT22;2044;48.692;9.020;2022-11-21T04:10:59;3.20;99.90
4058;DHT22;2044;48.692;9.020;2022-11-21T04:15:53;3.20;99.90
4058;DHT22;2044;48.692;9.020;2022-11-21T04:18:20;3.20;99.90
4058;DHT22;2044;48.692;9.020;2022-11-21T04:31:06;3.30;99.90
4058;DHT22;2044;48.692;9.020;2022-11-21T04:36:07;3.30;99.90
4058;DHT22;2044;48.692;9.020;2022-11-21T04:43:34;3.40;99.90
4058;DHT22;2044;48.692;9.020;2022-11-21T04:46:01;3.50;99.90
4058;DHT22;2044;48.692;9.020;2022-11-21T04:48:27;3.50;99.90
4058;DHT22;2044;48.692;9.020;2022-11-21T04:50:54;3.50;99.90
4058;DHT22;2044;48.692;9.020;2022-11-21T04:58:17;3.40;99.90
4058;DHT22;2044;48.692;9.020;2022-11-21T05:23:42;3.40;99.90
4058;DHT22;2044;48.692;9.020;2022-11-21T05:26:24;3.40;99.90
4058;DHT22;2044;48.692;9.020;2022-11-21T05:28:51;3.40;99.90
4058;DHT22;2044;48.692;9.020;2022-11-21T05:44:16;3.30;99.90
4058;DHT22;2044;48.692;9.020;2022-11-21T05:46:41;3.30;99.90
4058;DHT22;2044;48.692;9.020;2022-11-21T05:51:36;3.30;99.90
4058;DHT22;2044;48.692;9.020;2022-11-21T05:54:11;3.30;99.90
4058;DHT22;2044;48.692;9.020;2022-11-21T05:56:39;3.30;99.90
4058;DHT22;2044;48.692;9.020;2022-11-21T06:07:04;3.20;99.90
4058;DHT22;2044;48.692;9.020;2022-11-21T06:15:53;3.10;99.90
4058;DHT22;2044;48.692;9.020;2022-11-21T06:18:21;3.10;99.90
4058;DHT22;2044;48.692;9.020;2022-11-21T06:30:37;2.90;99.90
4058;DHT22;2044;48.692;9.020;2022-11-21T06:33:06;2.80;99.90
4058;DHT22;2044;48.692;9.020;2022-11-21T06:35:36;2.80;99.90
4058;DHT22;2044;48.692;9.020;2022-11-21T06:38:03;2.80;99.90
4058;DHT22;2044;48.692;9.020;2022-11-21T06:43:08;2.70;99.90
4058;DHT22;2044;48.692;9.020;2022-11-21T06:45:35;2.70;99.90
4058;DHT22;2044;48.692;9.020;2022-11-21T06:48:02;2.60;99.90
4058;DHT22;2044;48.692;9.020;2022-11-21T06:50:30;2.60;99.90
4058;DHT22;2044;48.692;9.020;2022-11-21T06:52:57;2.60;99.90
4058;DHT22;2044;48.692;9.020;2022-11-21T06:55:24;2.60;99.90
4058;DHT22;2044;48.692;9.020;2022-11-21T07:00:19;2.50;99.90
4058;DHT22;2044;48.692;9.020;2022-11-21T07:10:34;2.10;99.90
4058;DHT22;2044;48.692;9.020;2022-11-21T07:27:51;3.00;99.90
4058;DHT22;2044;48.692;9.020;2022-11-21T07:30:18;3.40;99.90
4058;DHT22;2044;48.692;9.020;2022-11-21T07:32:45;3.40;99.90
4058;DHT22;2044;48.692;9.020;2022-11-21T07:37:39;4.00;99.90
4058;DHT22;2044;48.692;9.020;2022-11-21T07:40:06;4.40;1.00
4058;DHT22;2044;48.692;9.020;2022-11-21T07:42:33;4.40;99.90
4058;DHT22;2044;48.692;9.020;2022-11-21T07:52:56;5.30;1.00
4058;DHT22;2044;48.692;9.020;2022-11-21T07:57:56;5.40;8.00
4058;DHT22;2044;48.692;9.020;2022-11-21T08:00:25;6.20;1.00
4058;DHT22;2044;48.692;9.020;2022-11-21T08:05:47;7.40;50.00
4058;DHT22;2044;48.692;9.020;2022-11-21T08:11:10;7.90;1.00
4058;DHT22;2044;48.692;9.020;2022-11-21T08:13:46;8.30;1.00
4058;DHT22;2044;48.692;9.020;2022-11-21T08:28:47;6.80;1.00
4058;DHT22;2044;48.692;9.020;2022-11-21T08:31:16;6.30;1.00
4058;DHT22;2044;48.692;9.020;2022-11-21T08:33:43;6.30;1.00
4058;DHT22;2044;48.692;9.020;2022-11-21T08:36:12;6.60;99.90
4058;DHT22;2044;48.692;9.020;2022-11-21T08:58:50;8.10;1.00
4058;DHT22;2044;48.692;9.020;2022-11-21T09:11:08;7.90;99.90
4058;DHT22;2044;48.692;9.020;2022-11-21T09:13:45;8.10;99.90
4058;DHT22;2044;48.692;9.020;2022-11-21T09:19:33;8.50;1.00
4058;DHT22;2044;48.692;9.020;2022-11-21T09:22:04;9.10;1.00
4058;DHT22;2044;48.692;9.020;2022-11-21T09:24:46;9.60;1.00
4058;DHT22;2044;48.692;9.020;2022-11-21T09:27:12;9.20;99.90
4058;DHT22;2044;48.692;9.020;2022-11-21T09:37:05;8.60;99.90
4058;DHT22;2044;48.692;9.020;2022-11-21T09:42:12;9.10;1.00
4058;DHT22;2044;48.692;9.020;2022-11-21T09:44:53;8.70;1.00
4058;DHT22;2044;48.692;9.020;2022-11-21T09:47:26;8.40;99.90
4058;DHT22;2044;48.692;9.020;2022-11-21T09:49:57;8.60;1.00
4058;DHT22;2044;48.692;9.020;2022-11-21T09:52:31;9.10;1.00
4058;DHT22;2044;48.692;9.020;2022-11-21T09:55:02;9.20;99.90
4058;DHT22;2044;48.692;9.020;2022-11-21T09:57:31;9.80;99.90
4058;DHT22;2044;48.692;9.020;2022-11-21T10:00:12;10.00;1.00
4058;DHT22;2044;48.692;9.020;2022-11-21T10:05:14;9.20;99.90
4058;DHT22;2044;48.692;9.020;2022-11-21T10:07:41;9.00;98.40
4058;DHT22;2044;48.692;9.020;2022-11-21T10:10:18;8.80;1.00
4058;DHT22;2044;48.692;9.020;2022-11-21T10:12:57;8.80;1.00
4058;DHT22;2044;48.692;9.020;2022-11-21T10:15:48;8.70;99.90
4058;DHT22;2044;48.692;9.020;2022-11-21T10:21:24;9.10;61.70
4058;DHT22;2044;48.692;9.020;2022-11-21T10:24:04;9.20;99.90
4058;DHT22;2044;48.692;9.020;2022-11-21T10:26:43;9.20;99.90
4058;DHT22;2044;48.692;9.020;2022-11-21T10:29:17;8.90;68.00
4058;DHT22;2044;48.692;9.020;2022-11-21T10:31:45;8.80;60.00
4058;DHT22;2044;48.692;9.020;2022-11-21T10:34:16;8.90;1.00
4058;DHT22;2044;48.692;9.020;2022-11-21T10:36:49;9.30;11.60
4058;DHT22;2044;48.692;9.020;2022-11-21T10:39:24;9.30;1.00
4058;DHT22;2044;48.692;9.020;2022-11-21T10:41:57;9.00;1.00
4058;DHT22;2044;48.692;9.020;2022-11-21T10:44:27;9.50;1.00
4058;DHT22;2044;48.692;9.020;2022-11-21T10:47:16;9.80;10.80
4058;DHT22;2044;48.692;9.020;2022-11-21T10:49:58;10.10;99.90
4058;DHT22;2044;48.692;9.020;2022-11-21T10:52:29;10.10;99.90
4058;DHT22;2044;48.692;9.020;2022-11-21T10:55:09;10.20;1.00
4058;DHT22;2044;48.692;9.020;2022-11-21T11:00:16;10.00;99.90
4058;DHT22;2044;48.692;9.020;2022-11-21T11:03:02;10.00;1.00
4058;DHT22;2044;48.692;9.020;2022-11-21T11:08:12;9.40;99.90
4058;DHT22;2044;48.692;9.020;2022-11-21T11:13:13;9.30;1.00
4058;DHT22;2044;48.692;9.020;2022-11-21T11:16:03;9.80;99.90
4058;DHT22;2044;48.692;9.020;2022-11-21T11:18:31;10.10;99.90
4058;DHT22;2044;48.692;9.020;2022-11-21T11:21:15;9.40;1.00
4058;DHT22;2044;48.692;9.020;2022-11-21T11:23:44;9.10;99.90
4058;DHT22;2044;48.692;9.020;2022-11-21T11:26:22;8.20;99.90
4058;DHT22;2044;48.692;9.020;2022-11-21T11:28:50;7.90;28.30
4058;DHT22;2044;48.692;9.020;2022-11-21T11:31:16;7.90;1.00
4058;DHT22;2044;48.692;9.020;2022-11-21T11:33:51;8.00;1.00
4058;DHT22;2044;48.692;9.020;2022-11-21T11:36:28;8.00;99.90
4058;DHT22;2044;48.692;9.020;2022-11-21T11:38:59;8.20;1.00
4058;DHT22;2044;48.692;9.020;2022-11-21T11:41:45;8.30;1.00
4058;DHT22;2044;48.692;9.020;2022-11-21T11:44:36;9.40;99.90
4058;DHT22;2044;48.692;9.020;2022-11-21T11:47:25;9.80;99.90
4058;DHT22;2044;48.692;9.020;2022-11-21T11:50:00;9.70;1.00
4058;DHT22;2044;48.692;9.020;2022-11-21T11:52:45;8.50;1.00
4058;DHT22;2044;48.692;9.020;2022-11-21T11:55:21;8.40;99.90
4058;DHT22;2044;48.692;9.020;2022-11-21T11:57:52;8.60;99.90
4058;DHT22;2044;48.692;9.020;2022-11-21T12:00:26;8.80;1.00
4058;DHT22;2044;48.692;9.020;2022-11-21T12:02:59;9.10;1.00
4058;DHT22;2044;48.692;9.020;2022-11-21T12:05:29;9.20;99.90
4058;DHT22;2044;48.692;9.020;2022-11-21T12:08:07;9.10;99.90
4058;DHT22;2044;48.692;9.020;2022-11-21T12:10:42;9.20;1.00
4058;DHT22;2044;48.692;9.020;2022-11-21T12:13:27;9.50;99.90
4058;DHT22;2044;48.692;9.020;2022-11-21T12:15:57;9.90;99.90
4058;DHT22;2044;48.692;9.020;2022-11-21T12:18:32;10.00;1.00
4058;DHT22;2044;48.692;9.020;2022-11-21T12:21:06;9.90;1.00
4058;DHT22;2044;48.692;9.020;2022-11-21T12:23:37;9.30;1.00
4058;DHT22;2044;48.692;9.020;2022-11-21T12:28:49;9.40;1.00
4058;DHT22;2044;48.692;9.020;2022-11-21T12:31:22;9.40;99.90
4058;DHT22;2044;48.692;9.020;2022-11-21T12:33:57;9.30;1.00
4058;DHT22;2044;48.692;9.020;2022-11-21T12:36:34;9.40;1.00
4058;DHT22;2044;48.692;9.020;2022-11-21T12:42:11;10.30;99.90
4058;DHT22;2044;48.692;9.020;2022-11-21T12:45:07;10.40;1.00
4058;DHT22;2044;48.692;9.020;2022-11-21T12:47:49;10.30;15.80
4058;DHT22;2044;48.692;9.020;2022-11-21T12:50:41;10.30;99.90
4058;DHT22;2044;48.692;9.020;2022-11-21T12:53:39;10.10;99.90
4058;DHT22;2044;48.692;9.020;2022-11-21T12:56:31;9.60;99.90
4058;DHT22;2044;48.692;9.020;2022-11-21T12:59:01;9.60;99.90
4058;DHT22;2044;48.692;9.020;2022-11-21T13:01:36;10.10;99.90
4058;DHT22;2044;48.692;9.020;2022-11-21T13:04:07;9.50;99.90
4058;DHT22;2044;48.692;9.020;2022-11-21T13:06:38;9.30;99.90
4058;DHT22;2044;48.692;9.020;2022-11-21T13:09:12;8.50;84.00
4058;DHT22;2044;48.692;9.020;2022-11-21T13:11:45;8.40;99.90
4058;DHT22;2044;48.692;9.020;2022-11-21T13:14:32;8.70;1.00
4058;DHT22;2044;48.692;9.020;2022-11-21T13:17:11;8.80;1.00
4058;DHT22;2044;48.692;9.020;2022-11-21T13:19:43;8.70;20.60
4058;DHT22;2044;48.692;9.020;2022-11-21T13:22:46;8.60;1.00
4058;DHT22;2044;48.692;9.020;2022-11-21T13:25:35;8.50;1.00
4058;DHT22;2044;48.692;9.020;2022-11-21T13:31:30;8.60;1.00
4058;DHT22;2044;48.692;9.020;2022-11-21T13:33:58;9.20;1.00
4058;DHT22;2044;48.692;9.020;2022-11-21T13:36:36;8.90;1.00
4058;DHT22;2044;48.692;9.020;2022-11-21T13:39:32;8.80;1.00
4058;DHT22;2044;48.692;9.020;2022-11-21T13:42:14;8.50;1.00
4058;DHT22;2044;48.692;9.020;2022-11-21T13:45:37;8.00;52.00
4058;DHT22;2044;48.692;9.020;2022-11-21T13:48:34;7.90;99.90
4058;DHT22;2044;48.692;9.020;2022-11-21T13:54:29;7.50;99.90
4058;DHT22;2044;48.692;9.020;2022-11-21T13:57:08;7.40;99.90
4058;DHT22;2044;48.692;9.020;2022-11-21T13:59:49;7.50;99.90
4058;DHT22;2044;48.692;9.020;2022-11-21T14:02:45;7.50;1.00
4058;DHT22;2044;48.692;9.020;2022-11-21T14:05:31;7.50;99.90
4058;DHT22;2044;48.692;9.020;2022-11-21T14:08:16;7.50;1.00
4058;DHT22;2044;48.692;9.020;2022-11-21T14:10:44;7.40;1.00
4058;DHT22;2044;48.692;9.020;2022-11-21T14:13:19;7.30;99.90
4058;DHT22;2044;48.692;9.020;2022-11-21T14:15:56;7.30;99.90
4058;DHT22;2044;48.692;9.020;2022-11-21T14:18:25;7.30;99.90
4058;DHT22;2044;48.692;9.020;2022-11-21T14:20:56;7.20;99.90
4058;DHT22;2044;48.692;9.020;2022-11-21T14:23:25;7.20;1.00
4058;DHT22;2044;48.692;9.020;2022-11-21T14:25:54;7.10;1.00
4058;DHT22;2044;48.692;9.020;2022-11-21T14:28:24;7.20;99.90
4058;DHT22;2044;48.692;9.020;2022-11-21T14:30:55;7.10;1.00
4058;DHT22;2044;48.692;9.020;2022-11-21T14:33:25;6.90;35.90
4058;DHT22;2044;48.692;9.020;2022-11-21T14:35:56;6.90;1.00
4058;DHT22;2044;48.692;9.020;2022-11-21T14:38:24;6.90;1.00
4058;DHT22;2044;48.692;9.020;2022-11-21T14:41:26;6.80;99.90
4058;DHT22;2044;48.692;9.020;2022-11-21T14:44:14;6.70;86.70
4058;DHT22;2044;48.692;9.020;2022-11-21T14:46:43;6.70;99.90
4058;DHT22;2044;48.692;9.020;2022-11-21T14:49:24;6.70;49.10
4058;DHT22;2044;48.692;9.020;2022-11-21T14:52:02;6.50;99.90
4058;DHT22;2044;48.692;9.020;2022-11-21T14:54:32;6.50;99.90
4058;DHT22;2044;48.692;9.020;2022-11-21T14:57:01;6.40;99.90
4058;DHT22;2044;48.692;9.020;2022-11-21T14:59:30;6.20;1.00
4058;DHT22;2044;48.692;9.020;2022-11-21T15:02:00;6.20;15.00
4058;DHT22;2044;48.692;9.020;2022-11-21T15:04:33;6.10;64.90
4058;DHT22;2044;48.692;9.020;2022-11-21T15:07:20;6.00;99.90
4058;DHT22;2044;48.692;9.020;2022-11-21T15:12:25;5.70;1.00
4058;DHT22;2044;48.692;9.020;2022-11-21T15:14:59;5.60;99.90
4058;DHT22;2044;48.692;9.020;2022-11-21T15:22:33;5.40;1.00
4058;DHT22;2044;48.692;9.020;2022-11-21T15:25:14;5.30;1.00
4058;DHT22;2044;48.692;9.020;2022-11-21T15:28:05;5.20;99.90
4058;DHT22;2044;48.692;9.020;2022-11-21T15:30:34;5.20;99.90
4058;DHT22;2044;48.692;9.020;2022-11-21T15:33:06;5.20;99.90
4058;DHT22;2044;48.692;9.020;2022-11-21T15:35:45;5.10;99.90
4058;DHT22;2044;48.692;9.020;2022-11-21T15:40:55;5.10;99.90
4058;DHT22;2044;48.692;9.020;2022-11-21T15:43:41;5.00;99.90
4058;DHT22;2044;48.692;9.020;2022-11-21T15:46:18;4.90;30.60
4058;DHT22;2044;48.692;9.020;2022-11-21T15:49:03;4.90;1.00
4058;DHT22;2044;48.692;9.020;2022-11-21T15:51:32;4.90;1.00
4058;DHT22;2044;48.692;9.020;2022-11-21T15:54:04;4.80;37.90
4058;DHT22;2044;48.692;9.020;2022-11-21T16:01:28;4.70;91.70
4058;DHT22;2044;48.692;9.020;2022-11-21T16:03:57;4.70;1.00
4058;DHT22;2044;48.692;9.020;2022-11-21T16:06:24;4.70;1.00
4058;DHT22;2044;48.692;9.020;2022-11-21T16:11:23;4.50;55.00
4058;DHT22;2044;48.692;9.020;2022-11-21T16:21:19;4.50;96.00
4058;DHT22;2044;48.692;9.020;2022-11-21T16:51:25;4.30;99.90
4058;DHT22;2044;48.692;9.020;2022-11-21T16:53:52;4.40;1.00
4058;DHT22;2044;48.692;9.020;2022-11-21T16:56:19;4.40;1.00
4058;DHT22;2044;48.692;9.020;2022-11-21T16:58:45;4.30;1.00
4058;DHT22;2044;48.692;9.020;2022-11-21T17:01:15;4.40;1.00
4058;DHT22;2044;48.692;9.020;2022-11-21T17:03:44;4.30;1.00
4058;DHT22;2044;48.692;9.020;2022-11-21T17:11:32;4.30;1.00
4058;DHT22;2044;48.692;9.020;2022-11-21T17:21:28;4.10;99.90
4058;DHT22;2044;48.692;9.020;2022-11-21T17:23:55;4.00;99.90
4058;DHT22;2044;48.692;9.020;2022-11-21T17:26:23;4.00;99.90
4058;DHT22;2044;48.692;9.020;2022-11-21T17:28:55;3.90;99.90
4058;DHT22;2044;48.692;9.020;2022-11-21T18:01:39;4.30;99.90
4058;DHT22;2044;48.692;9.020;2022-11-21T18:04:08;4.60;99.90
4058;DHT22;2044;48.692;9.020;2022-11-21T18:06:36;4.60;1.00
4058;DHT22;2044;48.692;9.020;2022-11-21T18:09:04;4.60;1.00
4058;DHT22;2044;48.692;9.020;2022-11-21T18:11:33;4.40;99.90
4058;DHT22;2044;48.692;9.020;2022-11-21T18:14:01;4.30;99.90
4058;DHT22;2044;48.692;9.020;2022-11-21T18:16:31;4.30;99.90
4058;DHT22;2044;48.692;9.020;2022-11-21T18:21:28;4.30;99.90
4058;DHT22;2044;48.692;9.020;2022-11-21T18:23:56;4.20;99.90
4058;DHT22;2044;48.692;9.020;2022-11-21T18:26:25;4.20;1.00
4058;DHT22;2044;48.692;9.020;2022-11-21T18:28:55;4.10;1.00
4058;DHT22;2044;48.692;9.020;2022-11-21T18:31:24;4.20;1.00
4058;DHT22;2044;48.692;9.020;2022-11-21T18:33:53;4.10;1.00
4058;DHT22;2044;48.692;9.020;2022-11-21T18:41:29;4.20;1.00
4058;DHT22;2044;48.692;9.020;2022-11-21T18:44:00;4.30;1.00
4058;DHT22;2044;48.692;9.020;2022-11-21T18:46:29;4.20;1.00
4058;DHT22;2044;48.692;9.020;2022-11-21T18:51:26;4.30;1.00
4058;DHT22;2044;48.692;9.020;2022-11-21T18:53:55;4.20;1.00
4058;DHT22;2044;48.692;9.020;2022-11-21T18:56:24;4.20;1.00
4058;DHT22;2044;48.692;9.020;2022-11-21T18:58:52;4.20;1.00
4058;DHT22;2044;48.692;9.020;2022-11-21T19:01:20;4.20;1.00
4058;DHT22;2044;48.692;9.020;2022-11-21T19:03:48;4.20;1.00
4058;DHT22;2044;48.692;9.020;2022-11-21T19:06:17;4.20;1.00
4058;DHT22;2044;48.692;9.020;2022-11-21T19:08:46;4.10;1.00
4058;DHT22;2044;48.692;9.020;2022-11-21T19:16:12;4.20;1.00
4058;DHT22;2044;48.692;9.020;2022-11-21T19:21:09;4.20;1.00
4058;DHT22;2044;48.692;9.020;2022-11-21T19:23:36;4.20;17.30
4058;DHT22;2044;48.692;9.020;2022-11-21T19:26:06;4.20;1.00
4058;DHT22;2044;48.692;9.020;2022-11-21T19:28:35;4.30;1.00
4058;DHT22;2044;48.692;9.020;2022-11-21T19:31:03;4.30;1.00
4058;DHT22;2044;48.692;9.020;2022-11-21T19:33:32;4.20;27.40
4058;DHT22;2044;48.692;9.020;2022-11-21T19:36:00;4.30;71.70
4058;DHT22;2044;48.692;9.020;2022-11-21T19:38:27;4.20;18.20
4058;DHT22;2044;48.692;9.020;2022-11-21T19:46:07;4.30;1.00
4058;DHT22;2044;48.692;9.020;2022-11-21T19:48:34;4.40;1.00
4058;DHT22;2044;48.692;9.020;2022-11-21T19:51:02;4.30;1.00
4058;DHT22;2044;48.692;9.020;2022-11-21T19:53:32;4.40;1.00
4058;DHT22;2044;48.692;9.020;2022-11-21T19:56:06;4.40;1.00
4058;DHT22;2044;48.692;9.020;2022-11-21T20:01:10;4.20;91.30
4058;DHT22;2044;48.692;9.020;2022-11-21T20:03:39;4.30;91.40
4058;DHT22;2044;48.692;9.020;2022-11-21T20:06:07;4.30;99.90
4058;DHT22;2044;48.692;9.020;2022-11-21T20:08:34;4.30;99.90
4058;DHT22;2044;48.692;9.020;2022-11-21T20:11:06;6.30;99.90
4058;DHT22;2044;48.692;9.020;2022-11-21T20:21:06;4.40;99.90
4058;DHT22;2044;48.692;9.020;2022-11-21T20:33:33;4.50;99.90
4058;DHT22;2044;48.692;9.020;2022-11-21T20:40:58;4.60;23.90
4058;DHT22;2044;48.692;9.020;2022-11-21T21:10:59;4.60;99.90
4058;DHT22;2044;48.692;9.020;2022-11-21T21:16:02;5.30;99.90
4058;DHT22;2044;48.692;9.020;2022-11-21T21:23:34;4.60;99.90
4058;DHT22;2044;48.692;9.020;2022-11-21T21:26:11;4.60;99.90
4058;DHT22;2044;48.692;9.020;2022-11-21T21:36:22;4.60;96.40
4058;DHT22;2044;48.692;9.020;2022-11-21T21:38:57;4.60;99.90
4058;DHT22;2044;48.692;9.020;2022-11-21T21:41:30;4.60;87.90
4058;DHT22;2044;48.692;9.020;2022-11-21T21:46:26;4.60;99.90
4058;DHT22;2044;48.692;9.020;2022-11-21T21:48:54;4.60;99.90
4058;DHT22;2044;48.692;9.020;2022-11-21T21:51:24;4.60;99.90
4058;DHT22;2044;48.692;9.020;2022-11-21T21:53:52;4.60;99.90
4058;DHT22;2044;48.692;9.020;2022-11-21T21:56:20;4.60;99.90
4058;DHT22;2044;48.692;9.020;2022-11-21T21:58:48;4.70;99.90
4058;DHT22;2044;48.692;9.020;2022-11-21T22:01:17;4.70;96.10
4058;DHT22;2044;48.692;9.020;2022-11-21T22:03:45;4.70;99.90
4058;DHT22;2044;48.692;9.020;2022-11-21T22:06:13;4.70;99.90
4058;DHT22;2044;48.692;9.020;2022-11-21T22:08:42;4.70;99.90
4058;DHT22;2044;48.692;9.020;2022-11-21T22:11:10;4.70;99.90
4058;DHT22;2044;48.692;9.020;2022-11-21T22:13:39;4.80;93.10
4058;DHT22;2044;48.692;9.020;2022-11-21T22:16:07;4.80;99.90
4058;DHT22;2044;48.692;9.020;2022-11-21T22:18:34;4.80;99.90
4058;DHT22;2044;48.692;9.020;2022-11-21T22:21:10;4.60;1.00
4058;DHT22;2044;48.692;9.020;2022-11-21T22:23:47;4.50;1.00
4058;DHT22;2044;48.692;9.020;2022-11-21T22:26:13;4.50;1.00
4058;DHT22;2044;48.692;9.020;2022-11-21T22:28:41;4.40;1.00
4058;DHT22;2044;48.692;9.020;2022-11-21T22:31:09;4.30;1.00
4058;DHT22;2044;48.692;9.020;2022-11-21T22:33:37;4.20;55.50
4058;DHT22;2044;48.692;9.020;2022-11-21T22:36:06;4.20;66.50
4058;DHT22;2044;48.692;9.020;2022-11-21T22:38:33;4.20;99.90
4058;DHT22;2044;48.692;9.020;2022-11-21T22:41:02;4.10;99.90
4058;DHT22;2044;48.692;9.020;2022-11-21T22:43:29;4.10;99.90
4058;DHT22;2044;48.692;9.020;2022-11-21T22:45:59;4.10;99.90
4058;DHT22;2044;48.692;9.020;2022-11-21T22:48:26;4.10;99.90
4058;DHT22;2044;48.692;9.020;2022-11-21T22:50:53;4.10;99.90
4058;DHT22;2044;48.692;9.020;2022-11-21T22:53:20;4.00;99.90
4058;DHT22;2044;48.692;9.020;2022-11-21T22:55:55;4.00;99.90
4058;DHT22;2044;48.692;9.020;2022-11-21T22:58:23;4.00;99.90
4058;DHT22;2044;48.692;9.020;2022-11-21T23:00:50;4.00;99.90
4058;DHT22;2044;48.692;9.020;2022-11-21T23:03:16;4.00;99.90
4058;DHT22;2044;48.692;9.020;2022-11-21T23:05:43;4.00;99.90
4058;DHT22;2044;48.692;9.020;2022-11-21T23:08:10;4.00;99.90
4058;DHT22;2044;48.692;9.020;2022-11-21T23:13:04;4.00;99.90
4058;DHT22;2044;48.692;9.020;2022-11-21T23:15:32;4.00;99.90
4058;DHT22;2044;48.692;9.020;2022-11-21T23:18:06;4.00;99.90
4058;DHT22;2044;48.692;9.020;2022-11-21T23:23:00;4.00;99.90
4058;DHT22;2044;48.692;9.020;2022-11-21T23:25:26;4.10;99.90
4058;DHT22;2044;48.692;9.020;2022-11-21T23:30:20;4.00;99.90
4058;DHT22;2044;48.692;9.020;2022-11-21T23:32:48;4.00;99.90
4058;DHT22;2044;48.692;9.020;2022-11-21T23:35:15;4.00;99.90
4058;DHT22;2044;48.692;9.020;2022-11-21T23:37:42;4.00;99.90
4058;DHT22;2044;48.692;9.020;2022-11-21T23:40:09;4.00;99.90
4058;DHT22;2044;48.692;9.020;2022-11-21T23:42:36;4.00;99.90
